Time;durP1;ratioP1;P1;durP2;ratioP2;P2;SDS_P1;SDS_P2;PMS_P1;PMS_P2;Temp;Humidity;BMP_temperature;BMP_pressure;BME280_temperature;BME280_humidity;BME280_pressure;Samples;Min_cycle;Max_cycle;Signal;HPM_P1;HPM_P2
2021/07/14 00:01:01;;;;;;;40.33;25.20;;;;;;;23.83;62.77;100291.95;1681827;84;21098;-61
2021/07/14 00:03:28;;;;;;;40.30;26.48;;;;;;;23.80;62.67;100294.73;1686307;84;20983;-60
2021/07/14 00:05:55;;;;;;;41.83;26.95;;;;;;;23.78;62.69;100292.88;1684360;84;21168;-59
2021/07/14 00:08:21;;;;;;;41.90;25.72;;;;;;;23.76;62.78;100293.73;1680635;84;20912;-60
2021/07/14 00:10:48;;;;;;;39.67;24.57;;;;;;;23.72;62.89;100294.91;1688438;84;21055;-60
2021/07/14 00:24:01;;;;;;;41.00;26.20;;;;;;;23.72;62.81;100296.86;1682733;84;21533;-60
2021/07/14 00:26:26;;;;;;;41.18;26.93;;;;;;;23.70;62.88;100297.13;1686607;84;21019;-61
2021/07/14 00:28:54;;;;;;;41.02;27.82;;;;;;;23.68;62.91;100293.91;1683340;84;20986;-60
2021/07/14 00:31:21;;;;;;;43.13;26.70;;;;;;;23.66;62.98;100290.69;1685038;84;21231;-59
2021/07/14 00:33:48;;;;;;;36.28;24.70;;;;;;;23.66;63.11;100291.22;1681950;84;21525;-60
2021/07/14 00:36:16;;;;;;;;;;;;;;;23.66;63.31;100297.52;1687526;84;21058;-60
2021/07/14 00:38:42;;;;;;;40.73;24.55;;;;;;;23.65;63.45;100295.89;1683655;84;20147;-60
2021/07/14 00:41:09;;;;;;;41.68;24.40;;;;;;;23.62;63.70;100301.98;1683739;84;21569;-60
2021/07/14 00:43:35;;;;;;;38.65;23.32;;;;;;;23.59;63.89;100299.30;1686382;84;21207;-60
2021/07/14 00:46:24;;;;;;;38.63;24.10;;;;;;;23.59;63.96;100296.56;1658816;85;21031;-60
2021/07/14 00:48:53;;;;;;;34.40;22.27;;;;;;;23.58;63.98;100300.41;1660649;85;21546;-59
2021/07/14 00:51:19;;;;;;;33.70;20.65;;;;;;;23.55;64.08;100295.55;1657543;85;21001;-61
2021/07/14 00:53:46;;;;;;;30.37;21.23;;;;;;;23.54;64.24;100301.33;1661696;85;21561;-60
2021/07/14 00:56:13;;;;;;;32.58;22.25;;;;;;;23.52;64.30;100300.84;1657026;85;21139;-59
2021/07/14 00:58:40;;;;;;;33.10;20.43;;;;;;;23.50;64.39;100295.67;1626488;88;20964;-60
2021/07/14 01:01:06;;;;;;;34.33;21.20;;;;;;;23.49;64.42;100298.15;1684011;84;21485;-59
2021/07/14 01:03:44;;;;;;;34.90;21.65;;;;;;;23.49;64.56;100302.82;1682620;84;20987;-59
2021/07/14 01:06:16;;;;;;;33.48;21.95;;;;;;;23.49;64.57;100305.56;1683355;84;21007;-60
2021/07/14 01:09:02;;;;;;;29.30;21.33;;;;;;;23.47;64.58;100299.03;1682477;84;21175;-61
2021/07/14 01:11:33;;;;;;;33.85;19.37;;;;;;;23.46;64.71;100301.50;1682183;84;21524;-62
2021/07/14 01:14:22;;;;;;;37.70;20.62;;;;;;;23.44;64.83;100300.44;1688404;84;20935;-59
2021/07/14 01:16:46;;;;;;;30.23;19.50;;;;;;;23.44;65.20;100298.27;1683528;84;20999;-61
2021/07/14 01:19:55;;;;;;;29.55;18.82;;;;;;;23.46;65.68;100303.44;1685424;84;20895;-60
2021/07/14 01:22:36;;;;;;;27.77;18.30;;;;;;;23.47;66.21;100311.34;1687741;84;21146;-59
2021/07/14 01:25:08;;;;;;;30.32;17.82;;;;;;;23.49;66.83;100313.20;1682617;84;21046;-60
2021/07/14 01:27:38;;;;;;;27.30;17.98;;;;;;;23.52;67.36;100311.78;1674745;84;20956;-59
2021/07/14 01:30:10;;;;;;;30.77;20.10;;;;;;;23.53;67.96;100310.11;1668922;85;20926;-60
2021/07/14 01:32:38;;;;;;;25.60;20.43;;;;;;;23.57;69.31;100311.66;1670469;85;20971;-59
2021/07/14 01:35:13;;;;;;;29.10;19.77;;;;;;;23.57;70.10;100311.12;1668525;85;21819;-60
2021/07/14 01:37:43;;;;;;;26.60;18.50;;;;;;;23.56;70.73;100310.06;1666365;85;21043;-59
2021/07/14 01:40:10;;;;;;;29.63;20.68;;;;;;;23.55;71.11;100309.80;1667520;85;20970;-60
2021/07/14 01:42:37;;;;;;;24.50;19.02;;;;;;;23.55;71.50;100309.80;1665320;85;20923;-61
2021/07/14 01:45:05;;;;;;;25.08;17.98;;;;;;;23.56;71.73;100305.95;1670514;85;20959;-60
2021/07/14 01:47:34;;;;;;;22.40;16.97;;;;;;;23.59;71.95;100305.34;1667161;85;21783;-59
2021/07/14 01:50:00;;;;;;;24.65;18.55;;;;;;;23.64;72.00;100318.09;1675538;85;21063;-59
2021/07/14 01:52:28;;;;;;;24.98;19.87;;;;;;;23.69;71.92;100313.32;1668362;85;21537;-60
2021/07/14 01:54:58;;;;;;;24.52;18.65;;;;;;;23.73;71.75;100313.50;1666317;85;20920;-60
2021/07/14 01:57:27;;;;;;;24.70;18.73;;;;;;;23.73;71.86;100316.23;1673110;85;21453;-60
2021/07/14 01:59:53;;;;;;;25.08;18.30;;;;;;;23.74;71.72;100318.66;1644875;85;21123;-60
2021/07/14 02:02:22;;;;;;;22.70;16.67;;;;;;;23.79;71.74;100311.72;1670535;85;21480;-60
2021/07/14 02:04:48;;;;;;;;;;;;;;;23.82;71.98;100316.31;1677717;85;21501;-60
2021/07/14 02:07:16;;;;;;;24.35;19.07;;;;;;;23.83;72.00;100312.47;1667396;85;20144;-60
2021/07/14 02:09:45;;;;;;;23.32;17.60;;;;;;;23.83;71.93;100308.36;1668637;85;21007;-62
2021/07/14 02:12:19;;;;;;;23.50;18.32;;;;;;;23.85;72.03;100312.96;1669734;85;21159;-59
2021/07/14 02:15:05;;;;;;;23.18;17.35;;;;;;;23.86;71.91;100315.98;1669200;85;21081;-60
2021/07/14 02:17:58;;;;;;;23.30;17.25;;;;;;;23.89;71.85;100316.16;1670461;85;20939;-60
2021/07/14 02:20:26;;;;;;;22.17;17.70;;;;;;;23.92;71.83;100318.28;1668972;85;21050;-62
2021/07/14 02:22:53;;;;;;;23.18;17.90;;;;;;;23.96;71.85;100324.77;1672879;85;20992;-59
2021/07/14 02:25:20;;;;;;;24.05;18.05;;;;;;;24.01;71.97;100320.30;1672290;85;21139;-60
2021/07/14 02:27:47;;;;;;;24.57;17.37;;;;;;;23.99;72.12;100326.08;1681642;84;21505;-60
2021/07/14 02:30:19;;;;;;;21.50;16.65;;;;;;;24.00;72.21;100324.97;1680648;84;21581;-59
2021/07/14 02:32:47;;;;;;;19.98;17.20;;;;;;;24.05;72.24;100328.14;1687118;84;21007;-60
2021/07/14 02:35:14;;;;;;;22.87;16.77;;;;;;;24.11;72.17;100325.53;1683615;84;21090;-60
2021/07/14 02:38:08;;;;;;;21.12;16.45;;;;;;;24.13;72.19;100325.47;1685312;84;21127;-60
2021/07/14 02:40:49;;;;;;;23.77;16.87;;;;;;;24.17;72.10;100327.59;1682063;84;21109;-59
2021/07/14 02:43:16;;;;;;;23.98;17.55;;;;;;;24.21;72.03;100329.39;1683975;84;21007;-59
2021/07/14 02:45:45;;;;;;;20.40;17.27;;;;;;;24.28;71.82;100325.66;1664182;84;21540;-60
2021/07/14 02:48:12;;;;;;;21.95;17.30;;;;;;;24.34;71.72;100329.63;1683201;84;20951;-60
2021/07/14 02:50:38;;;;;;;26.17;18.12;;;;;;;24.39;71.56;100326.20;1687160;84;21249;-60
2021/07/14 02:53:15;;;;;;;26.20;17.17;;;;;;;24.41;71.39;100328.63;1683930;84;21548;-60
2021/07/14 02:55:45;;;;;;;21.25;15.95;;;;;;;24.43;71.32;100328.58;1683709;84;21437;-61
2021/07/14 02:58:14;;;;;;;21.30;16.73;;;;;;;24.47;71.33;100330.15;1685819;84;20962;-60
2021/07/14 03:00:41;;;;;;;21.52;17.40;;;;;;;24.52;71.24;100325.89;1681648;84;20994;-61
2021/07/14 03:03:08;;;;;;;26.23;17.07;;;;;;;24.56;71.14;100331.00;1685086;84;21132;-60
2021/07/14 03:05:37;;;;;;;23.62;17.50;;;;;;;24.62;70.97;100322.13;1684572;84;21489;-59
2021/07/14 03:08:07;;;;;;;24.60;16.02;;;;;;;24.69;70.85;100326.59;1681264;84;20920;-61
2021/07/14 03:10:33;;;;;;;20.43;16.55;;;;;;;24.74;70.67;100325.08;1685128;84;20928;-60
2021/07/14 03:13:02;;;;;;;20.52;16.62;;;;;;;24.81;70.50;100326.02;1683880;84;21011;-59
2021/07/14 03:15:30;;;;;;;25.08;17.42;;;;;;;24.87;70.37;100325.29;1682938;84;21217;-60
2021/07/14 03:17:59;;;;;;;24.80;17.17;;;;;;;24.92;70.29;100327.91;1683534;84;20951;-60
2021/07/14 03:20:27;;;;;;;;;;;;;;;24.98;70.04;100334.86;1688916;84;21051;-60
2021/07/14 03:22:53;;;;;;;24.02;15.60;;;;;;;25.03;69.92;100330.62;1673242;84;20115;-59
2021/07/14 03:25:20;;;;;;;24.23;16.57;;;;;;;25.06;69.86;100332.73;1685075;84;21592;-60
2021/07/14 03:27:47;;;;;;;19.67;15.40;;;;;;;25.10;69.75;100339.75;1675113;84;21141;-58
2021/07/14 03:30:15;;;;;;;20.90;15.53;;;;;;;25.13;69.68;100338.56;1671265;85;20948;-61
2021/07/14 03:32:43;;;;;;;24.32;15.95;;;;;;;25.18;69.36;100343.89;1669714;85;21579;-61
2021/07/14 03:35:11;;;;;;;25.75;15.90;;;;;;;25.23;69.00;100340.19;1673631;85;20940;-59
2021/07/14 03:37:38;;;;;;;29.80;16.82;;;;;;;25.28;68.47;100341.44;1628808;85;21019;-61
2021/07/14 03:40:06;;;;;;;25.10;15.10;;;;;;;25.36;68.00;100345.36;1670946;85;21108;-61
2021/07/14 03:42:33;;;;;;;29.10;15.85;;;;;;;25.42;67.61;100341.33;1670581;85;21489;-60
2021/07/14 03:44:59;;;;;;;32.73;16.20;;;;;;;25.55;67.31;100342.91;1665392;85;20958;-60
2021/07/14 03:47:26;;;;;;;26.65;15.05;;;;;;;25.77;66.75;100346.89;1654016;85;20986;-61
2021/07/14 03:49:54;;;;;;;25.02;15.13;;;;;;;26.05;66.10;100352.91;1667199;85;21503;-61
2021/07/14 03:52:21;;;;;;;30.45;15.78;;;;;;;26.52;65.21;100354.97;1669776;85;21778;-61
2021/07/14 03:54:48;;;;;;;24.92;15.30;;;;;;;27.31;63.60;100358.87;1668398;85;21017;-62
2021/07/14 03:57:16;;;;;;;23.98;15.05;;;;;;;28.24;61.44;100350.66;1672882;85;20942;-60
2021/07/14 03:59:43;;;;;;;23.92;13.90;;;;;;;29.26;58.83;100348.83;1671471;84;20904;-60
2021/07/14 04:02:13;;;;;;;16.93;12.57;;;;;;;30.29;56.02;100357.05;1666930;85;21011;-60
2021/07/14 04:04:40;;;;;;;14.53;11.45;;;;;;;31.25;53.21;100355.20;1668892;85;21916;-59
2021/07/14 04:07:16;;;;;;;20.45;12.47;;;;;;;32.12;50.83;100349.63;1669131;85;21006;-59
2021/07/14 04:09:46;;;;;;;16.42;11.70;;;;;;;32.86;48.74;100352.80;1660587;85;21007;-62
2021/07/14 04:12:14;;;;;;;12.55;10.75;;;;;;;33.66;46.87;100349.29;1666690;85;20963;-59
2021/07/14 04:14:41;;;;;;;12.43;9.73;;;;;;;34.25;45.54;100355.20;1670690;85;20875;-60
2021/07/14 04:17:08;;;;;;;11.67;10.30;;;;;;;34.65;44.42;100352.85;1680271;85;21148;-59
2021/07/14 04:19:35;;;;;;;11.45;9.53;;;;;;;35.00;43.19;100349.60;1680241;85;20900;-59
2021/07/14 04:22:06;;;;;;;11.70;10.23;;;;;;;35.13;42.67;100354.28;1680289;85;21042;-59
2021/07/14 04:24:33;;;;;;;11.15;9.58;;;;;;;34.90;42.31;100351.70;1677906;85;21442;-59
2021/07/14 04:27:00;;;;;;;12.07;9.78;;;;;;;34.47;43.62;100356.83;1673125;82;21027;-59
2021/07/14 04:29:27;;;;;;;11.88;9.50;;;;;;;34.48;43.71;100355.66;1658640;85;21096;-60
2021/07/14 04:31:53;;;;;;;10.75;9.65;;;;;;;34.86;43.54;100357.83;1655543;85;21033;-60
2021/07/14 04:34:20;;;;;;;10.38;9.00;;;;;;;35.44;42.27;100354.92;1666977;85;20958;-60
2021/07/14 04:36:47;;;;;;;11.83;8.53;;;;;;;35.93;40.86;100354.19;1679713;85;20967;-62
2021/07/14 04:39:14;;;;;;;10.20;9.20;;;;;;;36.29;39.93;100356.53;1658047;85;20964;-60
2021/07/14 04:41:41;;;;;;;9.40;8.43;;;;;;;36.69;39.68;100359.39;1669380;85;21163;-60
2021/07/14 04:44:10;;;;;;;11.18;7.65;;;;;;;37.11;38.56;100360.59;1670343;85;21517;-59
2021/07/14 04:46:36;;;;;;;9.05;7.47;;;;;;;37.45;37.60;100356.59;1672260;85;20987;-61
2021/07/14 04:49:04;;;;;;;10.93;7.35;;;;;;;37.79;38.21;100358.91;1680118;85;21521;-61
2021/07/14 04:51:30;;;;;;;8.08;7.28;;;;;;;38.12;36.42;100360.94;1672618;85;20965;-60
2021/07/14 04:53:57;;;;;;;8.67;7.77;;;;;;;38.35;36.94;100362.63;1673416;85;21121;-60
2021/07/14 04:56:24;;;;;;;12.13;7.85;;;;;;;38.63;35.38;100353.06;1670852;85;20892;-61
2021/07/14 04:58:52;;;;;;;8.63;7.65;;;;;;;38.87;35.61;100359.69;1675295;85;21058;-60
2021/07/14 05:01:19;;;;;;;9.80;7.95;;;;;;;39.13;35.23;100360.30;1675041;85;20959;-59
2021/07/14 05:03:47;;;;;;;9.63;7.47;;;;;;;39.19;32.98;100355.83;1679987;85;20996;-59
2021/07/14 05:06:16;;;;;;;11.05;7.00;;;;;;;38.94;34.80;100356.83;1659759;85;21245;-60
2021/07/14 05:08:43;;;;;;;10.40;7.10;;;;;;;39.02;34.60;100358.98;1679745;85;20932;-59
2021/07/14 05:11:12;;;;;;;8.63;7.55;;;;;;;39.06;34.24;100361.12;1680129;85;21046;-60
2021/07/14 05:13:39;;;;;;;10.05;7.65;;;;;;;39.13;34.98;100360.30;1680222;85;21545;-61
2021/07/14 05:16:08;;;;;;;9.27;7.40;;;;;;;39.23;34.03;100366.41;1680463;85;20983;-59
2021/07/14 05:18:36;;;;;;;8.28;7.47;;;;;;;39.14;33.03;100368.29;1679989;85;21039;-60
2021/07/14 05:21:03;;;;;;;9.45;6.85;;;;;;;38.82;34.30;100365.75;1679862;85;20991;-60
2021/07/14 05:23:29;;;;;;;8.40;7.47;;;;;;;38.63;34.31;100362.86;1680288;85;21530;-60
2021/07/14 05:25:56;;;;;;;9.65;7.08;;;;;;;38.56;35.33;100367.31;1680075;85;20986;-60
2021/07/14 05:28:24;;;;;;;9.60;6.90;;;;;;;38.60;33.82;100365.08;1679907;84;21035;-60
2021/07/14 05:30:52;;;;;;;7.87;7.08;;;;;;;38.50;34.33;100363.94;1680271;85;21147;-58
2021/07/14 05:33:19;;;;;;;8.93;6.67;;;;;;;38.39;34.70;100371.02;1680118;85;21534;-59
2021/07/14 05:35:47;;;;;;;13.65;6.75;;;;;;;38.35;35.77;100364.03;1680126;85;28462;-59
2021/07/14 05:38:19;;;;;;;;;;;;;;;38.30;34.68;100369.28;1682799;85;20927;-61
2021/07/14 05:40:49;;;;;;;8.40;6.92;;;;;;;38.19;34.21;100366.53;1680302;85;20465;-60
2021/07/14 05:43:15;;;;;;;8.10;7.05;;;;;;;38.01;34.76;100368.00;1679390;85;23328;-59
2021/07/14 05:45:42;;;;;;;11.93;7.08;;;;;;;37.85;35.60;100367.88;1680152;85;20876;-59
2021/07/14 05:48:09;;;;;;;10.15;7.15;;;;;;;37.70;35.36;100369.88;1680305;85;20955;-60
2021/07/14 05:50:36;;;;;;;8.18;6.45;;;;;;;37.56;35.52;100380.30;1680281;85;21058;-62
2021/07/14 05:53:04;;;;;;;7.83;6.58;;;;;;;37.52;36.12;100370.55;1680271;85;21032;-59
2021/07/14 05:55:31;;;;;;;8.30;7.05;;;;;;;37.54;36.20;100370.14;1680016;85;21125;-59
2021/07/14 05:57:58;;;;;;;7.10;6.40;;;;;;;37.52;35.14;100369.15;1680039;85;21023;-60
2021/07/14 06:00:26;;;;;;;8.58;6.62;;;;;;;37.40;35.92;100365.36;1680021;85;20949;-59
2021/07/14 06:02:52;;;;;;;9.93;6.70;;;;;;;37.33;36.14;100366.98;1680132;85;21008;-59
2021/07/14 06:05:19;;;;;;;10.15;6.62;;;;;;;37.34;36.55;100361.59;1680027;85;20904;-60
2021/07/14 06:07:46;;;;;;;;;;;;;;;37.41;36.91;100359.98;1682510;85;21139;-59
2021/07/14 06:10:13;;;;;;;7.20;6.50;;;;;;;37.43;35.21;100369.56;1680392;85;20515;-59
2021/07/14 06:12:41;;;;;;;6.92;6.33;;;;;;;37.29;34.85;100370.38;1680160;85;20956;-60
2021/07/14 06:15:11;;;;;;;12.47;6.85;;;;;;;37.07;35.26;100371.58;1680118;85;21043;-60
2021/07/14 06:17:37;;;;;;;6.45;5.85;;;;;;;36.91;34.84;100374.77;1680160;85;21576;-60
2021/07/14 06:20:06;;;;;;;7.12;6.00;;;;;;;36.63;35.45;100371.55;1680365;85;21107;-60
2021/07/14 06:22:33;;;;;;;9.43;7.00;;;;;;;36.47;36.55;100365.52;1673907;85;21525;-61
2021/07/14 06:24:59;;;;;;;10.72;6.80;;;;;;;36.43;37.48;100366.13;1680097;85;21015;-60
2021/07/14 06:27:27;;;;;;;8.35;6.30;;;;;;;36.45;36.48;100363.73;1679613;84;20951;-60
2021/07/14 06:29:54;;;;;;;12.35;6.90;;;;;;;36.39;36.50;100370.29;1675051;85;21055;-59
2021/07/14 06:32:20;;;;;;;10.48;6.42;;;;;;;36.33;36.48;100365.50;1679979;85;21887;-58
2021/07/14 06:34:47;;;;;;;11.22;6.20;;;;;;;36.26;36.75;100371.21;1679863;85;21030;-59
2021/07/14 06:37:14;;;;;;;10.88;6.30;;;;;;;36.20;36.50;100365.03;1680251;85;20877;-60
2021/07/14 06:39:40;;;;;;;8.80;5.95;;;;;;;36.09;36.72;100365.01;1680040;85;21486;-61
2021/07/14 06:42:09;;;;;;;10.70;6.53;;;;;;;36.02;36.84;100374.73;1680611;85;21051;-58
2021/07/14 06:44:37;;;;;;;11.55;6.95;;;;;;;35.98;36.70;100371.92;1680165;85;21232;-59
2021/07/14 06:47:04;;;;;;;;;;;;;;;35.94;35.92;100373.89;1682532;85;20944;-60
2021/07/14 06:49:31;;;;;;;7.65;6.10;;;;;;;35.78;35.32;100369.45;1680191;85;20087;-61
2021/07/14 06:51:58;;;;;;;13.08;6.62;;;;;;;35.55;36.30;100371.09;1680294;85;20983;-60
2021/07/14 06:54:24;;;;;;;12.07;6.50;;;;;;;35.43;36.49;100364.45;1680326;85;21406;-59
2021/07/14 06:56:51;;;;;;;8.60;7.35;;;;;;;35.35;37.96;100372.55;1680161;85;21098;-59
2021/07/14 06:59:17;;;;;;;7.70;6.42;;;;;;;35.30;36.29;100372.92;1679927;85;20992;-60
2021/07/14 07:01:44;;;;;;;7.70;6.55;;;;;;;35.15;37.34;100369.21;1680302;85;20971;-60
2021/07/14 07:04:10;;;;;;;9.40;7.53;;;;;;;35.11;39.16;100371.95;1680113;85;21043;-60
2021/07/14 07:06:37;;;;;;;8.48;6.72;;;;;;;35.09;37.95;100368.16;1679953;85;21232;-60
2021/07/14 07:09:05;;;;;;;10.03;6.50;;;;;;;35.03;38.30;100371.10;1680143;85;21788;-59
2021/07/14 07:11:34;;;;;;;9.33;6.75;;;;;;;35.05;38.99;100370.72;1677336;85;21415;-60
2021/07/14 07:14:02;;;;;;;10.98;6.72;;;;;;;35.07;37.70;100373.91;1680091;85;21038;-60
2021/07/14 07:16:28;;;;;;;8.45;6.40;;;;;;;35.01;37.74;100370.70;1680118;85;21150;-60
2021/07/14 07:18:56;;;;;;;10.05;6.58;;;;;;;34.95;36.93;100368.05;1680129;85;21036;-59
2021/07/14 07:21:23;;;;;;;8.35;6.42;;;;;;;34.86;35.20;100366.97;1676159;85;21092;-61
2021/07/14 07:23:52;;;;;;;7.03;6.22;;;;;;;34.74;36.11;100371.42;1679953;85;20964;-61
2021/07/14 07:26:18;;;;;;;7.10;5.70;;;;;;;34.69;36.41;100365.61;1680175;85;20928;-60
2021/07/14 07:28:45;;;;;;;8.45;7.12;;;;;;;34.73;36.71;100368.41;1680874;84;21514;-61
2021/07/14 07:31:11;;;;;;;9.33;6.22;;;;;;;34.82;36.47;100365.34;1682268;85;21062;-61
2021/07/14 07:33:38;;;;;;;11.08;5.72;;;;;;;34.78;35.95;100364.51;1676597;85;21171;-59
2021/07/14 07:36:06;;;;;;;12.60;5.87;;;;;;;34.59;35.11;100360.75;1682136;85;20987;-60
2021/07/14 07:38:35;;;;;;;6.15;5.25;;;;;;;34.31;36.03;100364.83;1682340;85;20944;-60
2021/07/14 07:41:04;;;;;;;7.22;5.35;;;;;;;34.13;35.89;100364.60;1682365;85;21422;-60
2021/07/14 07:43:33;;;;;;;7.05;5.67;;;;;;;34.07;38.10;100363.91;1681962;85;21012;-60
2021/07/14 07:46:00;;;;;;;6.30;5.22;;;;;;;34.15;37.70;100355.87;1680632;85;21526;-61
2021/07/14 07:48:27;;;;;;;6.20;5.58;;;;;;;34.20;35.89;100358.30;1682268;85;20990;-60
2021/07/14 07:50:55;;;;;;;10.32;5.70;;;;;;;34.12;35.95;100350.48;1678131;85;20896;-60
2021/07/14 07:53:22;;;;;;;9.00;5.92;;;;;;;34.06;37.23;100347.83;1682142;85;20964;-60
2021/07/14 07:55:50;;;;;;;8.13;5.55;;;;;;;34.10;37.96;100350.07;1682273;85;21023;-59
2021/07/14 07:58:17;;;;;;;;;;;;;;;34.15;35.98;100349.72;1682550;85;21156;-60
2021/07/14 08:00:45;;;;;;;5.70;5.03;;;;;;;34.16;35.42;100350.53;1682241;85;20421;-60
2021/07/14 08:03:11;;;;;;;;;;;;;;;34.11;35.00;100349.47;1684587;85;20964;-59
2021/07/14 08:05:40;;;;;;;9.50;5.17;;;;;;;33.99;34.32;100351.31;1682299;85;20462;-60
2021/07/14 08:08:07;;;;;;;8.43;5.58;;;;;;;33.79;34.89;100347.08;1682099;85;21025;-59
2021/07/14 08:10:35;;;;;;;10.20;5.70;;;;;;;33.68;35.66;100351.88;1682165;85;21046;-61
2021/07/14 08:13:02;;;;;;;9.45;4.60;;;;;;;33.68;35.77;100353.87;1682092;85;21418;-60
2021/07/14 08:15:29;;;;;;;5.87;5.28;;;;;;;33.66;35.18;100347.91;1682356;85;20912;-60
2021/07/14 08:17:56;;;;;;;8.28;4.72;;;;;;;33.61;35.69;100343.45;1682220;85;25941;-60
2021/07/14 08:20:23;;;;;;;9.28;5.28;;;;;;;33.61;35.32;100339.88;1682095;85;21008;-60
2021/07/14 08:22:54;;;;;;;7.08;4.60;;;;;;;33.55;34.52;100338.61;1682247;85;21820;-59
2021/07/14 08:25:20;;;;;;;6.33;4.55;;;;;;;33.39;34.56;100336.79;1679395;84;21087;-60
2021/07/14 08:27:47;;;;;;;7.33;4.42;;;;;;;33.22;34.78;100340.12;1682082;85;20959;-60
2021/07/14 08:30:16;;;;;;;6.87;4.78;;;;;;;33.09;35.28;100343.06;1680080;84;20916;-60
2021/07/14 08:32:43;;;;;;;5.62;5.12;;;;;;;33.04;36.11;100342.00;1678925;85;20917;-60
2021/07/14 08:35:10;;;;;;;6.47;4.92;;;;;;;33.06;36.48;100345.80;1678814;85;21167;-59
2021/07/14 08:37:37;;;;;;;6.58;4.85;;;;;;;33.10;35.75;100345.24;1672018;85;21525;-60
2021/07/14 08:40:06;;;;;;;5.83;4.65;;;;;;;33.08;35.43;100345.62;1677855;85;21010;-61
2021/07/14 08:42:36;;;;;;;8.10;4.67;;;;;;;33.00;36.32;100343.91;1677280;85;21463;-63
2021/07/14 08:45:08;;;;;;;6.78;4.65;;;;;;;32.99;36.57;100336.16;1679903;85;21550;-62
2021/07/14 08:47:34;;;;;;;7.12;5.05;;;;;;;33.06;36.70;100336.88;1680242;85;21792;-64
2021/07/14 08:50:06;;;;;;;6.65;5.45;;;;;;;33.11;36.58;100336.57;1676121;85;21478;-61
2021/07/14 08:52:33;;;;;;;6.15;4.92;;;;;;;33.08;35.74;100343.44;1677209;85;21055;-61
2021/07/14 08:54:59;;;;;;;6.65;4.70;;;;;;;32.82;36.28;100337.48;1675207;85;21110;-62
2021/07/14 08:57:26;;;;;;;8.30;4.85;;;;;;;32.69;37.05;100336.66;1679914;85;20896;-62
2021/07/14 08:59:54;;;;;;;8.43;4.80;;;;;;;32.71;37.43;100337.88;1679851;85;21454;-61
2021/07/14 09:02:20;;;;;;;9.00;5.67;;;;;;;32.78;38.10;100335.23;1679872;85;21058;-60
2021/07/14 09:04:47;;;;;;;5.30;4.80;;;;;;;32.87;37.49;100335.58;1679860;85;21011;-61
2021/07/14 09:07:15;;;;;;;5.65;4.80;;;;;;;32.93;37.30;100331.31;1679857;85;20940;-61
2021/07/14 09:09:43;;;;;;;11.35;5.12;;;;;;;33.02;36.66;100336.00;1680301;85;21561;-61
2021/07/14 09:12:11;;;;;;;13.10;6.10;;;;;;;33.09;37.20;100340.88;1672550;85;21107;-61
2021/07/14 09:14:41;;;;;;;8.88;5.15;;;;;;;33.16;36.37;100340.41;1679902;85;20996;-60
2021/07/14 09:17:25;;;;;;;16.10;5.33;;;;;;;33.19;36.22;100331.92;1670219;85;21543;-62
2021/07/14 09:20:05;;;;;;;9.70;6.55;;;;;;;33.22;35.54;100334.58;1677887;85;20960;-61
2021/07/14 09:22:33;;;;;;;9.65;6.65;;;;;;;33.22;35.44;100340.12;1679769;85;21036;-61
2021/07/14 09:25:12;;;;;;;8.73;6.58;;;;;;;33.13;35.56;100343.14;1661898;85;21122;-60
2021/07/14 09:27:39;;;;;;;6.72;6.00;;;;;;;32.97;35.90;100339.91;1668079;85;20987;-61
2021/07/14 09:30:10;;;;;;;11.65;6.50;;;;;;;32.83;35.89;100339.09;1670377;85;20972;-62
2021/07/14 09:32:54;;;;;;;9.65;6.30;;;;;;;32.70;36.01;100336.86;1665748;85;21337;-60
2021/07/14 09:35:49;;;;;;;9.78;6.78;;;;;;;32.59;36.43;100333.88;1633184;86;21541;-60
2021/07/14 09:38:15;;;;;;;11.68;6.97;;;;;;;32.57;37.07;100345.34;1675343;85;21159;-59
2021/07/14 09:40:49;;;;;;;10.18;6.85;;;;;;;32.51;36.71;100332.95;1674702;85;21007;-60
2021/07/14 09:43:19;;;;;;;12.43;7.37;;;;;;;32.42;36.98;100341.51;1672073;85;21036;-60
2021/07/14 09:45:59;;;;;;;10.05;6.83;;;;;;;32.30;37.62;100338.32;1667505;85;21639;-63
2021/07/14 09:48:38;;;;;;;7.65;6.37;;;;;;;32.16;37.38;100342.19;1662766;85;20951;-62
2021/07/14 09:51:14;;;;;;;10.65;7.17;;;;;;;32.04;37.64;100338.96;1666027;85;21164;-60
2021/07/14 09:53:44;;;;;;;6.78;6.17;;;;;;;31.95;37.93;100341.95;1663917;85;20954;-59
2021/07/14 09:56:15;;;;;;;8.38;6.50;;;;;;;31.88;37.23;100329.92;1665523;85;20925;-61
2021/07/14 09:58:41;;;;;;;10.85;6.10;;;;;;;31.79;37.52;100340.62;1667377;85;21052;-62
2021/07/14 10:01:16;;;;;;;8.00;6.58;;;;;;;31.74;37.13;100334.00;1667266;85;21046;-60
2021/07/14 10:03:52;;;;;;;8.10;7.28;;;;;;;31.72;37.93;100338.29;1664795;85;21154;-61
2021/07/14 10:06:25;;;;;;;7.00;5.93;;;;;;;31.68;37.73;100338.20;1668874;85;21470;-59
2021/07/14 10:08:51;;;;;;;8.40;6.72;;;;;;;31.58;37.66;100340.15;1668840;85;21462;-61
2021/07/14 10:11:25;;;;;;;6.78;5.47;;;;;;;31.56;37.42;100330.03;1662059;85;20972;-62
2021/07/14 10:13:57;;;;;;;9.15;6.20;;;;;;;31.56;37.94;100328.05;1666637;85;21060;-59
2021/07/14 10:16:34;;;;;;;7.05;6.25;;;;;;;31.61;37.69;100327.78;1660654;85;21133;-61
2021/07/14 10:19:08;;;;;;;9.68;5.67;;;;;;;31.60;36.92;100327.55;1664163;85;21566;-60
2021/07/14 10:21:41;;;;;;;8.30;5.70;;;;;;;31.56;37.56;100328.64;1663053;85;20984;-60
2021/07/14 10:24:10;;;;;;;10.43;5.85;;;;;;;31.60;38.28;100331.70;1662762;85;20959;-59
2021/07/14 10:26:40;;;;;;;8.08;5.60;;;;;;;31.66;38.20;100335.00;1660740;85;21600;-61
2021/07/14 10:29:07;;;;;;;9.80;6.00;;;;;;;31.72;38.18;100332.75;1660854;85;21133;-64
2021/07/14 10:31:35;;;;;;;9.40;6.20;;;;;;;31.79;37.43;100329.55;1660404;85;20971;-59
2021/07/14 10:34:04;;;;;;;10.98;6.05;;;;;;;31.78;37.71;100339.60;1658129;85;20952;-61
2021/07/14 10:36:35;;;;;;;8.80;6.15;;;;;;;31.78;37.69;100332.08;1656064;85;21511;-60
2021/07/14 10:39:11;;;;;;;13.45;5.95;;;;;;;31.72;36.92;100334.93;1662942;85;20970;-61
2021/07/14 10:41:37;;;;;;;13.55;6.50;;;;;;;31.70;36.98;100330.34;1658205;85;21155;-61
2021/07/14 10:44:06;;;;;;;14.25;6.42;;;;;;;31.74;37.80;100333.18;1662332;85;20937;-61
2021/07/14 10:46:35;;;;;;;;;;;;;;;31.72;37.61;100334.93;1656370;85;21469;-61
2021/07/14 10:49:03;;;;;;;;;;;;;;;31.70;37.42;100332.30;1653950;85;20193;-61
2021/07/14 10:51:31;;;;;;;10.98;5.30;;;;;;;31.70;37.16;100326.75;1654273;85;20438;-61
2021/07/14 10:54:03;;;;;;;7.78;5.40;;;;;;;31.71;37.40;100325.00;1652555;86;22055;-60
2021/07/14 10:56:36;;;;;;;9.90;5.42;;;;;;;31.74;37.72;100327.08;1679576;84;21513;-60
2021/07/14 10:59:05;;;;;;;7.87;5.95;;;;;;;31.78;38.02;100322.39;1674045;84;21537;-60
2021/07/14 11:01:42;;;;;;;5.33;4.45;;;;;;;31.85;37.67;100323.13;1682183;84;20994;-61
2021/07/14 11:04:32;;;;;;;9.10;5.58;;;;;;;31.94;37.72;100327.86;1678899;84;20935;-62
2021/07/14 11:07:06;;;;;;;10.00;4.97;;;;;;;31.98;36.81;100327.95;1677417;84;21166;-61
2021/07/14 11:09:41;;;;;;;11.78;5.85;;;;;;;31.95;36.69;100332.25;1677807;84;21045;-60
2021/07/14 11:12:27;;;;;;;5.47;4.97;;;;;;;31.96;36.62;100326.94;1680357;84;21042;-61
2021/07/14 11:15:00;;;;;;;8.95;5.53;;;;;;;31.99;36.62;100328.16;1680710;84;20951;-61
2021/07/14 11:17:30;;;;;;;5.80;4.85;;;;;;;32.01;36.15;100323.62;1676734;84;21211;-59
2021/07/14 11:20:08;;;;;;;5.10;4.60;;;;;;;31.99;36.06;100319.84;1674428;84;21148;-61
2021/07/14 11:22:45;;;;;;;10.82;5.58;;;;;;;31.96;36.67;100322.78;1674997;84;20967;-61
2021/07/14 11:25:23;;;;;;;7.35;5.42;;;;;;;31.94;35.43;100322.32;1676112;84;21403;-61
2021/07/14 11:28:00;;;;;;;7.95;5.35;;;;;;;31.90;35.84;100324.21;1678832;84;21054;-61
2021/07/14 11:30:33;;;;;;;10.27;5.30;;;;;;;31.92;36.01;100329.39;1678226;84;21030;-61
2021/07/14 11:33:00;;;;;;;7.97;5.05;;;;;;;31.93;35.55;100325.45;1678809;84;21260;-62
2021/07/14 11:35:45;;;;;;;7.05;4.55;;;;;;;31.87;35.11;100327.72;1676586;84;21529;-62
2021/07/14 11:38:22;;;;;;;11.38;5.35;;;;;;;31.73;35.45;100321.87;1682431;84;21557;-60
2021/07/14 11:40:53;;;;;;;7.37;4.62;;;;;;;31.65;35.13;100315.97;1678613;84;21497;-60